Esil, Kazakhstan
Current Conditions -  °F | °C
As of 9:00 PM on Sunday 21 Dec 2014 (Local Time) from UAUU Reporting Station
Overcast Overcast  
Wind Chill: 19°   Ceiling: 600
Heat Index: 30°   Visibility: 6mi
Dew Point: 27°   Wind: 16mph
Humidity: 86%   Direction: 190°S
Pressure: 29.91"   Gusts: NA
Location:  51.96°N, 66.38°E
Report Text: UAUU 211500Z 19007MPS 9999 OVC006 M01/M03 Q1013 R15/CLRD60NOSIG RMK QBB180 QFE743/0991
Loading
Personal Weather Stations






























Interactive Weather Map New forecast layout! Learn more

10-Day Weather Forecast

Advertisements
Track Severe Weather on mobile